Back to Top
Banner_Quays_at_Mast_2020.jpeg
Banner_VERITY.jpeg
Banner_P42_Kinsale_2004.jpeg
Superyacht_SCOUT.jpg
Kinsale_Trawlers_Banner.jpeg
previous arrow
next arrow

Port Arrivals Report (AIS)

This report is generated from collected AIS (Automated Identification System) signals from vessels entering port.

IMO MMSI Class Flag Vessel Name Vessel type Nav Status Destination Call Sign Latitude Longitude Speed (kts) Course (T) Draught (m) LOA (m) Beam (m) Timestamp
0 250013741 B IE ENIGMA SAILING. - EIA2208 51.6885 -8.49854 6.6 340.9 0 12 4 2024-06-01 13:47:59
0 227151160 B FR - - 51.6902 -8.49952 6.6 345.4 0 0 0 2024-06-01 13:31:44
0 250103750 B IE HARPY DREDGING / UNDERWATER Ops. - EI7410 51.6876 -8.50126 9.3 349.8 0 13 4 2024-06-01 12:58:57
0 250005916 B IE CIMARRON Pleasure craft - EIWS3 51.6877 -8.49986 7.3 357.1 0 13 3 2024-06-01 11:33:35
8808939 250000527 A IE F/V RACHEL JAY S448 FISHING. - EI8447 51.69 -8.49992 9 345.4 0 26 8 2024-06-01 11:11:06
0 232016609 B GB RNLI LIFEBOAT B-909 SAR. - 51.6875 -8.49936 28.3 354.6 0 8 2 2024-06-01 11:06:08
0 250004156 A IE F/V BREIZH ARVOR II FISHING. - KINSALE EIRX3 51.7017 -8.51736 0 243.5 3.2 23 6 2024-06-01 06:06:06
0 228030900 B FR ALBATROS SAILING. - FIFD 51.6878 -8.4985 3.8 347.5 0 20 5 2024-06-01 04:07:11
0 250003677 B IE SIBONEY SAILING. - EI-QT-2 51.6873 -8.49538 4.3 305.7 0 9 4 2024-05-31 20:31:50
0 250006035 B IE VALFREYA SAILING. - EI-XB-6 51.6871 -8.49525 4.2 0.1 0 10 3 2024-05-31 20:29:54
0 250005095 B IE GGENESIS SAILING. - EITK2 51.6872 -8.49549 4 290.3 0 11 4 2024-05-31 20:26:04
0 250005916 B IE CIMARRON Pleasure craft - EIWS3 51.688 -8.49487 4.7 13.2 0 13 3 2024-05-31 20:12:41
0 232048803 B GB VIRGINIA Pleasure craft - MNZI3 51.6876 -8.49907 9.8 347.8 0 0 0 2024-05-31 20:06:11
0 250001825 B IE OCEAN RANGER Pleasure craft - EIHP5 51.6889 -8.50165 24.2 341.3 0 12 5 2024-05-31 20:04:02
0 250006035 B IE VALFREYA SAILING. - EI-XB-6 51.6873 -8.49871 3 323.8 0 10 3 2024-05-31 18:34:19
0 250006598 B IE AN FANAI Pleasure craft - EI ZO 6 51.6878 -8.50033 3.1 3.5 0 8 3 2024-05-31 18:20:00
0 250013758 B IE VENT BLEU SAILING. - EIA2225 51.6881 -8.49889 5.2 350.7 0 0 0 2024-05-31 18:16:40
0 250001702 A IE ADRIANNE FISHING. Undefined CO EIGX7 51.689 -8.49965 7.3 356.3 3.5 21 7 2024-05-31 17:49:17
0 235055739 B GB VIKING LORD Pleasure craft - MVNM2 51.6876 -8.49898 4.6 0.9 0 11 4 2024-05-31 16:15:31
0 250103750 B IE HARPY DREDGING / UNDERWATER Ops. - EI7410 51.6877 -8.5015 11.6 345.7 0 13 4 2024-05-31 16:07:38